sensor_id;sensor_type;location;lat;lon;timestamp;pressure;altitude;pressure_sealevel;temperature;humidity
50770;BME280;36740;48.698;11.472;2023-11-21T00:02:10;96896.31;;;6.40;100.00
50770;BME280;36740;48.698;11.472;2023-11-21T00:04:56;96897.94;;;6.41;100.00
50770;BME280;36740;48.698;11.472;2023-11-21T00:07:42;96894.00;;;6.37;100.00
50770;BME280;36740;48.698;11.472;2023-11-21T00:10:28;96894.97;;;6.36;100.00
50770;BME280;36740;48.698;11.472;2023-11-21T00:13:14;96890.34;;;6.30;100.00
50770;BME280;36740;48.698;11.472;2023-11-21T00:16:00;96892.41;;;6.36;100.00
50770;BME280;36740;48.698;11.472;2023-11-21T00:18:46;96887.94;;;6.28;100.00
50770;BME280;36740;48.698;11.472;2023-11-21T00:21:32;96897.38;;;6.37;100.00
50770;BME280;36740;48.698;11.472;2023-11-21T00:24:17;96892.28;;;6.37;100.00
50770;BME280;36740;48.698;11.472;2023-11-21T00:27:03;96901.16;;;6.43;100.00
50770;BME280;36740;48.698;11.472;2023-11-21T00:29:49;96896.31;;;6.40;100.00
50770;BME280;36740;48.698;11.472;2023-11-21T00:32:35;96898.06;;;6.39;100.00
50770;BME280;36740;48.698;11.472;2023-11-21T00:35:21;96896.13;;;6.32;100.00
50770;BME280;36740;48.698;11.472;2023-11-21T00:38:07;96897.69;;;6.44;100.00
50770;BME280;36740;48.698;11.472;2023-11-21T00:40:54;96896.59;;;6.46;100.00
50770;BME280;36740;48.698;11.472;2023-11-21T00:43:41;96894.50;;;6.52;100.00
50770;BME280;36740;48.698;11.472;2023-11-21T00:46:28;96898.78;;;6.51;100.00
50770;BME280;36740;48.698;11.472;2023-11-21T00:49:14;96902.28;;;6.50;100.00
50770;BME280;36740;48.698;11.472;2023-11-21T00:52:00;96898.78;;;6.51;100.00
50770;BME280;36740;48.698;11.472;2023-11-21T00:54:46;96903.19;;;6.49;100.00
50770;BME280;36740;48.698;11.472;2023-11-21T00:57:34;96898.09;;;6.49;100.00
50770;BME280;36740;48.698;11.472;2023-11-21T01:00:20;96902.00;;;6.53;100.00
50770;BME280;36740;48.698;11.472;2023-11-21T01:03:06;96894.88;;;6.47;100.00
50770;BME280;36740;48.698;11.472;2023-11-21T01:05:53;96897.44;;;6.47;100.00
50770;BME280;36740;48.698;11.472;2023-11-21T01:08:39;96901.16;;;6.43;100.00
50770;BME280;36740;48.698;11.472;2023-11-21T01:11:25;96899.03;;;6.48;100.00
50770;BME280;36740;48.698;11.472;2023-11-21T01:14:11;96897.19;;;6.50;100.00
50770;BME280;36740;48.698;11.472;2023-11-21T01:16:58;96890.97;;;6.43;100.00
50770;BME280;36740;48.698;11.472;2023-11-21T01:19:44;96893.09;;;6.38;100.00
50770;BME280;36740;48.698;11.472;2023-11-21T01:22:30;96891.16;;;6.30;100.00
50770;BME280;36740;48.698;11.472;2023-11-21T01:25:16;96897.94;;;6.41;100.00
50770;BME280;36740;48.698;11.472;2023-11-21T01:28:01;96893.59;;;6.32;100.00
50770;BME280;36740;48.698;11.472;2023-11-21T01:30:48;96893.88;;;6.38;100.00
50770;BME280;36740;48.698;11.472;2023-11-21T01:33:34;96892.41;;;6.36;100.00
50770;BME280;36740;48.698;11.472;2023-11-21T01:36:19;96884.22;;;6.32;100.00
50770;BME280;36740;48.698;11.472;2023-11-21T01:39:05;96879.94;;;6.33;100.00
50770;BME280;36740;48.698;11.472;2023-11-21T01:41:54;96878.31;;;6.32;100.00
50770;BME280;36740;48.698;11.472;2023-11-21T01:44:39;96888.13;;;6.36;100.00
50770;BME280;36740;48.698;11.472;2023-11-21T01:47:25;96885.56;;;6.36;100.00
50770;BME280;36740;48.698;11.472;2023-11-21T01:50:15;96876.06;;;6.38;100.00
50770;BME280;36740;48.698;11.472;2023-11-21T01:53:01;96877.44;;;6.42;100.00
50770;BME280;36740;48.698;11.472;2023-11-21T01:55:48;96874.72;;;6.34;100.00
50770;BME280;36740;48.698;11.472;2023-11-21T01:58:34;96887.38;;;6.24;100.00
50770;BME280;36740;48.698;11.472;2023-11-21T02:01:20;96880.44;;;6.26;100.00
50770;BME280;36740;48.698;11.472;2023-11-21T02:04:06;96878.59;;;6.38;100.00
50770;BME280;36740;48.698;11.472;2023-11-21T02:06:53;96881.03;;;6.40;100.00
50770;BME280;36740;48.698;11.472;2023-11-21T02:09:40;96881.09;;;6.28;100.00
50770;BME280;36740;48.698;11.472;2023-11-21T02:12:28;96885.63;;;6.25;100.00
50770;BME280;36740;48.698;11.472;2023-11-21T02:15:14;96885.22;;;6.20;100.00
50770;BME280;36740;48.698;11.472;2023-11-21T02:18:05;96878.53;;;6.19;100.00
50770;BME280;36740;48.698;11.472;2023-11-21T02:20:51;96878.66;;;6.17;100.00
50770;BME280;36740;48.698;11.472;2023-11-21T02:23:37;96879.06;;;6.22;100.00
50770;BME280;36740;48.698;11.472;2023-11-21T02:26:24;96873.16;;;6.22;100.00
50770;BME280;36740;48.698;11.472;2023-11-21T02:29:11;96877.28;;;6.13;100.00
50770;BME280;36740;48.698;11.472;2023-11-21T02:31:58;96876.53;;;6.22;100.00
50770;BME280;36740;48.698;11.472;2023-11-21T02:34:45;96875.03;;;6.20;100.00
50770;BME280;36740;48.698;11.472;2023-11-21T02:37:31;96874.22;;;6.19;100.00
50770;BME280;36740;48.698;11.472;2023-11-21T02:40:17;96871.06;;;6.27;100.00
50770;BME280;36740;48.698;11.472;2023-11-21T02:43:06;96871.69;;;6.19;100.00
50770;BME280;36740;48.698;11.472;2023-11-21T02:45:52;96874.97;;;6.31;100.00
50770;BME280;36740;48.698;11.472;2023-11-21T02:48:37;96879.06;;;6.22;100.00
50770;BME280;36740;48.698;11.472;2023-11-21T02:51:23;96885.94;;;6.32;100.00
50770;BME280;36740;48.698;11.472;2023-11-21T02:54:09;96875.75;;;6.32;100.00
50770;BME280;36740;48.698;11.472;2023-11-21T02:56:55;96876.47;;;6.34;100.00
50770;BME280;36740;48.698;11.472;2023-11-21T02:59:40;96881.16;;;6.38;100.00
50770;BME280;36740;48.698;11.472;2023-11-21T03:02:26;96871.63;;;6.31;100.00
50770;BME280;36740;48.698;11.472;2023-11-21T03:05:12;96877.94;;;6.36;100.00
50770;BME280;36740;48.698;11.472;2023-11-21T03:07:58;96870.66;;;6.32;100.00
50770;BME280;36740;48.698;11.472;2023-11-21T03:10:43;96879.50;;;6.27;100.00
50770;BME280;36740;48.698;11.472;2023-11-21T03:13:29;96874.72;;;6.34;100.00
50770;BME280;36740;48.698;11.472;2023-11-21T03:16:15;96874.53;;;6.26;100.00
50770;BME280;36740;48.698;11.472;2023-11-21T03:19:02;96870.53;;;6.33;100.00
50770;BME280;36740;48.698;11.472;2023-11-21T03:21:48;96867.06;;;6.34;100.00
50770;BME280;36740;48.698;11.472;2023-11-21T03:24:34;96868.72;;;6.45;100.00
50770;BME280;36740;48.698;11.472;2023-11-21T03:27:20;96869.53;;;6.45;100.00
50770;BME280;36740;48.698;11.472;2023-11-21T03:30:08;96864.41;;;6.36;100.00
50770;BME280;36740;48.698;11.472;2023-11-21T03:32:54;96866.22;;;6.24;100.00
50770;BME280;36740;48.698;11.472;2023-11-21T03:35:40;96854.97;;;6.26;100.00
50770;BME280;36740;48.698;11.472;2023-11-21T03:38:27;96855.28;;;6.33;100.00
50770;BME280;36740;48.698;11.472;2023-11-21T03:41:13;96857.13;;;6.31;100.00
50770;BME280;36740;48.698;11.472;2023-11-21T03:44:00;96865.69;;;6.30;100.00
50770;BME280;36740;48.698;11.472;2023-11-21T03:46:45;96857.97;;;6.41;100.00
50770;BME280;36740;48.698;11.472;2023-11-21T03:49:31;96863.72;;;6.34;100.00
50770;BME280;36740;48.698;11.472;2023-11-21T03:52:17;96855.44;;;6.41;100.00
50770;BME280;36740;48.698;11.472;2023-11-21T03:55:04;96858.75;;;6.32;100.00
50770;BME280;36740;48.698;11.472;2023-11-21T03:57:51;96859.72;;;6.41;100.00
50770;BME280;36740;48.698;11.472;2023-11-21T04:00:37;96861.72;;;6.37;100.00
50770;BME280;36740;48.698;11.472;2023-11-21T04:03:23;96865.63;;;6.41;100.00
50770;BME280;36740;48.698;11.472;2023-11-21T04:06:08;96862.94;;;6.43;100.00
50770;BME280;36740;48.698;11.472;2023-11-21T04:08:54;96864.16;;;6.39;100.00
50770;BME280;36740;48.698;11.472;2023-11-21T04:11:40;96868.59;;;6.16;100.00
50770;BME280;36740;48.698;11.472;2023-11-21T04:14:25;96874.00;;;6.22;100.00
50770;BME280;36740;48.698;11.472;2023-11-21T04:17:11;96880.38;;;6.17;100.00
50770;BME280;36740;48.698;11.472;2023-11-21T04:19:57;96876.91;;;6.18;100.00
50770;BME280;36740;48.698;11.472;2023-11-21T04:22:43;96880.00;;;6.21;100.00
50770;BME280;36740;48.698;11.472;2023-11-21T04:25:30;96880.97;;;6.30;100.00
50770;BME280;36740;48.698;11.472;2023-11-21T04:28:16;96880.72;;;6.33;100.00
50770;BME280;36740;48.698;11.472;2023-11-21T04:31:02;96877.56;;;6.41;100.00
50770;BME280;36740;48.698;11.472;2023-11-21T04:33:47;96874.47;;;6.37;100.00
50770;BME280;36740;48.698;11.472;2023-11-21T04:36:33;96877.00;;;6.37;100.00
50770;BME280;36740;48.698;11.472;2023-11-21T04:39:20;96874.91;;;6.21;100.00
50770;BME280;36740;48.698;11.472;2023-11-21T04:42:06;96871.69;;;6.19;100.00
50770;BME280;36740;48.698;11.472;2023-11-21T04:44:51;96874.09;;;6.21;100.00
50770;BME280;36740;48.698;11.472;2023-11-21T04:47:38;96879.25;;;6.31;100.00
50770;BME280;36740;48.698;11.472;2023-11-21T04:50:23;96882.34;;;6.34;100.00
50770;BME280;36740;48.698;11.472;2023-11-21T04:53:12;96885.06;;;6.42;100.00
50770;BME280;36740;48.698;11.472;2023-11-21T04:55:59;96882.41;;;6.44;100.00
50770;BME280;36740;48.698;11.472;2023-11-21T04:58:45;96888.88;;;6.27;100.00
50770;BME280;36740;48.698;11.472;2023-11-21T05:01:31;96884.28;;;6.21;100.00
50770;BME280;36740;48.698;11.472;2023-11-21T05:04:17;96890.97;;;6.22;100.00
50770;BME280;36740;48.698;11.472;2023-11-21T05:07:03;96891.44;;;6.27;100.00
50770;BME280;36740;48.698;11.472;2023-11-21T05:09:49;96899.25;;;6.35;100.00
50770;BME280;36740;48.698;11.472;2023-11-21T05:12:35;96898.19;;;6.38;100.00
50770;BME280;36740;48.698;11.472;2023-11-21T05:15:24;96902.84;;;6.33;100.00
50770;BME280;36740;48.698;11.472;2023-11-21T05:18:10;96899.25;;;6.35;100.00
50770;BME280;36740;48.698;11.472;2023-11-21T05:20:56;96900.16;;;6.34;100.00
50770;BME280;36740;48.698;11.472;2023-11-21T05:23:43;96899.63;;;6.31;100.00
50770;BME280;36740;48.698;11.472;2023-11-21T05:26:28;96895.09;;;6.34;100.00
50770;BME280;36740;48.698;11.472;2023-11-21T05:29:14;96900.72;;;6.38;100.00
50770;BME280;36740;48.698;11.472;2023-11-21T05:32:01;96895.63;;;6.38;100.00
50770;BME280;36740;48.698;11.472;2023-11-21T05:34:47;96893.75;;;6.40;100.00
50770;BME280;36740;48.698;11.472;2023-11-21T05:37:32;96894.16;;;6.35;100.00
50770;BME280;36740;48.698;11.472;2023-11-21T05:40:18;96897.31;;;6.27;100.00
50770;BME280;36740;48.698;11.472;2023-11-21T05:43:04;96900.13;;;6.24;100.00
50770;BME280;36740;48.698;11.472;2023-11-21T05:45:50;96899.38;;;6.34;100.00
50770;BME280;36740;48.698;11.472;2023-11-21T05:48:37;96905.69;;;6.39;100.00
50770;BME280;36740;48.698;11.472;2023-11-21T05:51:23;96900.06;;;6.36;100.00
50770;BME280;36740;48.698;11.472;2023-11-21T05:54:09;96904.19;;;6.37;100.00
50770;BME280;36740;48.698;11.472;2023-11-21T05:56:54;96897.81;;;6.42;100.00
50770;BME280;36740;48.698;11.472;2023-11-21T05:59:40;96906.53;;;6.50;100.00
50770;BME280;36740;48.698;11.472;2023-11-21T06:02:26;96905.31;;;6.44;100.00
50770;BME280;36740;48.698;11.472;2023-11-21T06:05:12;96903.31;;;6.48;100.00
50770;BME280;36740;48.698;11.472;2023-11-21T06:07:58;96907.75;;;6.45;100.00
50770;BME280;36740;48.698;11.472;2023-11-21T06:10:44;96905.88;;;6.48;100.00
50770;BME280;36740;48.698;11.472;2023-11-21T06:13:30;96914.06;;;6.51;100.00
50770;BME280;36740;48.698;11.472;2023-11-21T06:16:17;96913.94;;;6.53;100.00
50770;BME280;36740;48.698;11.472;2023-11-21T06:19:04;96917.69;;;6.49;100.00
50770;BME280;36740;48.698;11.472;2023-11-21T06:21:51;96914.56;;;6.45;100.00
50770;BME280;36740;48.698;11.472;2023-11-21T06:24:36;96922.38;;;6.53;100.00
50770;BME280;36740;48.698;11.472;2023-11-21T06:27:22;96930.91;;;6.42;100.00
50770;BME280;36740;48.698;11.472;2023-11-21T06:30:10;96920.84;;;6.41;100.00
50770;BME280;36740;48.698;11.472;2023-11-21T06:32:57;96920.06;;;6.40;100.00
50770;BME280;36740;48.698;11.472;2023-11-21T06:35:43;96926.19;;;6.38;100.00
50770;BME280;36740;48.698;11.472;2023-11-21T06:38:29;96924.56;;;6.37;100.00
50770;BME280;36740;48.698;11.472;2023-11-21T06:41:17;96929.66;;;6.37;100.00
50770;BME280;36740;48.698;11.472;2023-11-21T06:44:03;96933.94;;;6.36;100.00
50770;BME280;36740;48.698;11.472;2023-11-21T06:46:50;96944.56;;;6.41;100.00
50770;BME280;36740;48.698;11.472;2023-11-21T06:49:36;96942.84;;;6.42;100.00
50770;BME280;36740;48.698;11.472;2023-11-21T06:52:23;96949.28;;;6.46;100.00
50770;BME280;36740;48.698;11.472;2023-11-21T06:55:09;96942.31;;;6.48;100.00
50770;BME280;36740;48.698;11.472;2023-11-21T06:57:55;96944.75;;;6.50;100.00
50770;BME280;36740;48.698;11.472;2023-11-21T07:00:41;96949.03;;;6.49;100.00
50770;BME280;36740;48.698;11.472;2023-11-21T07:03:32;96957.34;;;6.51;100.00
50770;BME280;36740;48.698;11.472;2023-11-21T07:06:18;96962.31;;;6.53;100.00
50770;BME280;36740;48.698;11.472;2023-11-21T07:09:04;96964.19;;;6.51;100.00
50770;BME280;36740;48.698;11.472;2023-11-21T07:11:49;96962.13;;;6.44;100.00
50770;BME280;36740;48.698;11.472;2023-11-21T07:14:35;96961.59;;;6.41;100.00
50770;BME280;36740;48.698;11.472;2023-11-21T07:17:21;96964.81;;;6.43;100.00
50770;BME280;36740;48.698;11.472;2023-11-21T07:20:09;96968.03;;;6.45;100.00
50770;BME280;36740;48.698;11.472;2023-11-21T07:22:55;96960.78;;;6.40;100.00
50770;BME280;36740;48.698;11.472;2023-11-21T07:25:41;96970.84;;;6.42;100.00
50770;BME280;36740;48.698;11.472;2023-11-21T07:28:29;96971.91;;;6.39;100.00
50770;BME280;36740;48.698;11.472;2023-11-21T07:31:15;96973.28;;;6.43;100.00
50770;BME280;36740;48.698;11.472;2023-11-21T07:34:01;96984.63;;;6.39;100.00
50770;BME280;36740;48.698;11.472;2023-11-21T07:36:47;96975.13;;;6.41;100.00
50770;BME280;36740;48.698;11.472;2023-11-21T07:39:33;96982.19;;;6.38;100.00
50770;BME280;36740;48.698;11.472;2023-11-21T07:42:19;96985.53;;;6.38;100.00
50770;BME280;36740;48.698;11.472;2023-11-21T07:45:05;96994.19;;;6.47;100.00
50770;BME280;36740;48.698;11.472;2023-11-21T07:47:52;96999.91;;;6.39;100.00
50770;BME280;36740;48.698;11.472;2023-11-21T07:50:38;97000.22;;;6.46;100.00
50770;BME280;36740;48.698;11.472;2023-11-21T07:53:27;97003.97;;;6.42;100.00
50770;BME280;36740;48.698;11.472;2023-11-21T07:56:15;97004.63;;;6.44;100.00
50770;BME280;36740;48.698;11.472;2023-11-21T07:59:01;97002.53;;;6.49;100.00
50770;BME280;36740;48.698;11.472;2023-11-21T08:01:47;97005.06;;;6.49;100.00
50770;BME280;36740;48.698;11.472;2023-11-21T08:04:33;96995.75;;;6.59;100.00
50770;BME280;36740;48.698;11.472;2023-11-21T08:07:19;97002.09;;;6.65;100.00
50770;BME280;36740;48.698;11.472;2023-11-21T08:10:05;97006.59;;;6.61;100.00
50770;BME280;36740;48.698;11.472;2023-11-21T08:12:52;97007.69;;;6.59;100.00
50770;BME280;36740;48.698;11.472;2023-11-21T08:15:39;97009.63;;;6.67;100.00
50770;BME280;36740;48.698;11.472;2023-11-21T08:18:24;97008.00;;;6.66;100.00
50770;BME280;36740;48.698;11.472;2023-11-21T08:21:12;96998.78;;;6.74;100.00
50770;BME280;36740;48.698;11.472;2023-11-21T08:23:58;96996.41;;;6.82;100.00
50770;BME280;36740;48.698;11.472;2023-11-21T08:26:45;97000.34;;;6.87;100.00
50770;BME280;36740;48.698;11.472;2023-11-21T08:29:30;96994.97;;;6.90;100.00
50770;BME280;36740;48.698;11.472;2023-11-21T08:32:17;96997.56;;;6.99;100.00
50770;BME280;36740;48.698;11.472;2023-11-21T08:35:02;96998.50;;;6.98;100.00
50770;BME280;36740;48.698;11.472;2023-11-21T08:37:51;97005.34;;;6.98;100.00
50770;BME280;36740;48.698;11.472;2023-11-21T08:40:36;96997.06;;;7.06;100.00
50770;BME280;36740;48.698;11.472;2023-11-21T08:43:22;97002.69;;;7.09;100.00
50770;BME280;36740;48.698;11.472;2023-11-21T08:46:08;97012.50;;;7.14;100.00
50770;BME280;36740;48.698;11.472;2023-11-21T08:48:54;97005.69;;;7.14;100.00
50770;BME280;36740;48.698;11.472;2023-11-21T08:51:39;97009.16;;;7.13;100.00
50770;BME280;36740;48.698;11.472;2023-11-21T08:54:26;97008.50;;;7.11;100.00
50770;BME280;36740;48.698;11.472;2023-11-21T08:57:11;97014.66;;;7.09;100.00
50770;BME280;36740;48.698;11.472;2023-11-21T08:59:57;97019.13;;;7.16;100.00
50770;BME280;36740;48.698;11.472;2023-11-21T09:02:43;97013.34;;;7.24;100.00
50770;BME280;36740;48.698;11.472;2023-11-21T09:05:29;97016.47;;;7.28;100.00
50770;BME280;36740;48.698;11.472;2023-11-21T09:08:15;97020.03;;;7.15;100.00
50770;BME280;36740;48.698;11.472;2023-11-21T09:11:01;97019.81;;;7.28;100.00
50770;BME280;36740;48.698;11.472;2023-11-21T09:13:48;97024.94;;;7.28;100.00
50770;BME280;36740;48.698;11.472;2023-11-21T09:16:33;97024.00;;;7.29;100.00
50770;BME280;36740;48.698;11.472;2023-11-21T09:19:19;97024.50;;;7.23;100.00
50770;BME280;36740;48.698;11.472;2023-11-21T09:22:05;97032.97;;;7.24;100.00
50770;BME280;36740;48.698;11.472;2023-11-21T09:24:51;97046.38;;;7.26;100.00
50770;BME280;36740;48.698;11.472;2023-11-21T09:27:37;97046.13;;;7.29;100.00
50770;BME280;36740;48.698;11.472;2023-11-21T09:30:23;97042.59;;;7.20;100.00
50770;BME280;36740;48.698;11.472;2023-11-21T09:33:10;97051.13;;;7.40;100.00
50770;BME280;36740;48.698;11.472;2023-11-21T09:35:58;97053.06;;;7.48;100.00
50770;BME280;36740;48.698;11.472;2023-11-21T09:38:44;97049.78;;;7.36;100.00
50770;BME280;36740;48.698;11.472;2023-11-21T09:41:37;97046.16;;;7.38;100.00
50770;BME280;36740;48.698;11.472;2023-11-21T09:44:35;97047.00;;;7.49;100.00
50770;BME280;36740;48.698;11.472;2023-11-21T09:47:22;97049.50;;;7.39;100.00
50770;BME280;36740;48.698;11.472;2023-11-21T09:50:09;97058.16;;;7.48;100.00
50770;BME280;36740;48.698;11.472;2023-11-21T09:55:59;97043.09;;;7.45;100.00
50770;BME280;36740;48.698;11.472;2023-11-21T09:58:50;97050.84;;;7.33;100.00
50770;BME280;36740;48.698;11.472;2023-11-21T10:01:38;97051.13;;;7.40;100.00
50770;BME280;36740;48.698;11.472;2023-11-21T10:04:25;97048.00;;;7.27;100.00
50770;BME280;36740;48.698;11.472;2023-11-21T10:07:13;97052.47;;;7.34;100.00
50770;BME280;36740;48.698;11.472;2023-11-21T10:10:03;97053.28;;;7.35;100.00
50770;BME280;36740;48.698;11.472;2023-11-21T10:12:50;97049.34;;;7.31;100.00
50770;BME280;36740;48.698;11.472;2023-11-21T10:15:41;97041.84;;;7.29;100.00
50770;BME280;36740;48.698;11.472;2023-11-21T10:18:30;97049.66;;;7.37;100.00
50770;BME280;36740;48.698;11.472;2023-11-21T10:21:16;97051.69;;;7.44;100.00
50770;BME280;36740;48.698;11.472;2023-11-21T10:24:02;97045.91;;;7.42;100.00
50770;BME280;36740;48.698;11.472;2023-11-21T10:26:48;97046.75;;;7.52;100.00
50770;BME280;36740;48.698;11.472;2023-11-21T10:29:35;97049.19;;;7.63;100.00
50770;BME280;36740;48.698;11.472;2023-11-21T10:32:21;97047.03;;;7.59;100.00
50770;BME280;36740;48.698;11.472;2023-11-21T10:35:07;97047.31;;;7.65;100.00
50770;BME280;36740;48.698;11.472;2023-11-21T10:38:01;97048.97;;;7.76;100.00
50770;BME280;36740;48.698;11.472;2023-11-21T10:40:48;97044.81;;;7.85;100.00
50770;BME280;36740;48.698;11.472;2023-11-21T10:43:34;97042.78;;;7.79;100.00
50770;BME280;36740;48.698;11.472;2023-11-21T10:46:21;97047.22;;;7.77;100.00
50770;BME280;36740;48.698;11.472;2023-11-21T10:49:07;97051.97;;;7.91;100.00
50770;BME280;36740;48.698;11.472;2023-11-21T10:51:56;97043.94;;;8.05;100.00
50770;BME280;36740;48.698;11.472;2023-11-21T10:54:41;97043.94;;;8.15;100.00
50770;BME280;36740;48.698;11.472;2023-11-21T10:57:28;97042.69;;;8.00;100.00
50770;BME280;36740;48.698;11.472;2023-11-21T11:00:15;97048.22;;;8.15;100.00
50770;BME280;36740;48.698;11.472;2023-11-21T11:03:02;97039.38;;;8.19;100.00
50770;BME280;36740;48.698;11.472;2023-11-21T11:05:49;97036.66;;;8.10;100.00
50770;BME280;36740;48.698;11.472;2023-11-21T11:08:37;97039.63;;;8.16;100.00
50770;BME280;36740;48.698;11.472;2023-11-21T11:11:25;97036.13;;;8.26;100.00
50770;BME280;36740;48.698;11.472;2023-11-21T11:14:11;97034.78;;;8.42;100.00
50770;BME280;36740;48.698;11.472;2023-11-21T11:16:58;97036.53;;;8.41;100.00
50770;BME280;36740;48.698;11.472;2023-11-21T11:19:47;97029.94;;;8.39;100.00
50770;BME280;36740;48.698;11.472;2023-11-21T11:25:57;97034.13;;;8.30;100.00
50770;BME280;36740;48.698;11.472;2023-11-21T11:28:54;97032.13;;;8.43;100.00
50770;BME280;36740;48.698;11.472;2023-11-21T11:35:04;97022.94;;;8.31;100.00
50770;BME280;36740;48.698;11.472;2023-11-21T11:37:53;97026.72;;;8.27;100.00
50770;BME280;36740;48.698;11.472;2023-11-21T11:40:41;97029.69;;;8.22;100.00
50770;BME280;36740;48.698;11.472;2023-11-21T11:43:27;97031.31;;;8.14;100.00
50770;BME280;36740;48.698;11.472;2023-11-21T11:46:13;97029.50;;;7.85;100.00
50770;BME280;36740;48.698;11.472;2023-11-21T11:49:02;97039.25;;;7.60;100.00
50770;BME280;36740;48.698;11.472;2023-11-21T11:55:16;97043.50;;;7.40;100.00
50770;BME280;36740;48.698;11.472;2023-11-21T11:58:06;97046.41;;;7.35;100.00
50770;BME280;36740;48.698;11.472;2023-11-21T12:00:52;97052.06;;;7.29;100.00
50770;BME280;36740;48.698;11.472;2023-11-21T12:03:40;97053.91;;;7.27;100.00
50770;BME280;36740;48.698;11.472;2023-11-21T12:06:33;97049.50;;;7.29;100.00
50770;BME280;36740;48.698;11.472;2023-11-21T12:09:21;97047.66;;;7.41;100.00
50770;BME280;36740;48.698;11.472;2023-11-21T12:12:08;97045.00;;;7.43;100.00
50770;BME280;36740;48.698;11.472;2023-11-21T12:14:54;97042.31;;;7.44;100.00
50770;BME280;36740;48.698;11.472;2023-11-21T12:17:42;97040.06;;;7.51;100.00
50770;BME280;36740;48.698;11.472;2023-11-21T12:20:31;97040.56;;;7.45;100.00
50770;BME280;36740;48.698;11.472;2023-11-21T12:23:17;97042.34;;;7.54;100.00
50770;BME280;36740;48.698;11.472;2023-11-21T12:26:03;97046.22;;;7.58;100.00
50770;BME280;36740;48.698;11.472;2023-11-21T12:28:55;97043.31;;;7.72;100.00
50770;BME280;36740;48.698;11.472;2023-11-21T12:31:41;97041.22;;;7.87;100.00
50770;BME280;36740;48.698;11.472;2023-11-21T12:34:27;97041.91;;;7.99;100.00
50770;BME280;36740;48.698;11.472;2023-11-21T12:37:13;97044.72;;;8.06;100.00
50770;BME280;36740;48.698;11.472;2023-11-21T12:39:59;97040.00;;;7.91;100.00
50770;BME280;36740;48.698;11.472;2023-11-21T12:42:45;97046.22;;;8.08;100.00
50770;BME280;36740;48.698;11.472;2023-11-21T12:45:33;97045.66;;;8.05;100.00
50770;BME280;36740;48.698;11.472;2023-11-21T12:48:19;97050.78;;;8.15;100.00
50770;BME280;36740;48.698;11.472;2023-11-21T12:51:12;97042.97;;;8.16;100.00
50770;BME280;36740;48.698;11.472;2023-11-21T12:54:01;97040.16;;;8.09;100.00
50770;BME280;36740;48.698;11.472;2023-11-21T12:56:47;97044.72;;;8.06;100.00
50770;BME280;36740;48.698;11.472;2023-11-21T12:59:32;97049.81;;;7.96;100.00
50770;BME280;36740;48.698;11.472;2023-11-21T13:02:19;97045.13;;;8.11;100.00
50770;BME280;36740;48.698;11.472;2023-11-21T13:05:04;97051.00;;;8.02;100.00
50770;BME280;36740;48.698;11.472;2023-11-21T13:12:09;97045.75;;;7.93;100.00
50770;BME280;36740;48.698;11.472;2023-11-21T13:16:15;97061.25;;;7.92;100.00
50770;BME280;36740;48.698;11.472;2023-11-21T13:18:33;97059.63;;;7.91;100.00
50770;BME280;36740;48.698;11.472;2023-11-21T13:21:18;97071.72;;;7.99;100.00
50770;BME280;36740;48.698;11.472;2023-11-21T13:24:04;97070.09;;;7.98;100.00
50770;BME280;36740;48.698;11.472;2023-11-21T13:26:50;97071.31;;;8.03;100.00
50770;BME280;36740;48.698;11.472;2023-11-21T13:29:36;97084.94;;;8.14;100.00
50770;BME280;36740;48.698;11.472;2023-11-21T13:32:22;97080.09;;;8.20;100.00
50770;BME280;36740;48.698;11.472;2023-11-21T13:35:08;97083.44;;;8.21;100.00
50770;BME280;36740;48.698;11.472;2023-11-21T13:38:11;97092.31;;;8.26;100.00
50770;BME280;36740;48.698;11.472;2023-11-21T13:40:57;97084.66;;;8.17;100.00
50770;BME280;36740;48.698;11.472;2023-11-21T13:43:44;97094.84;;;8.07;100.00
50770;BME280;36740;48.698;11.472;2023-11-21T13:46:38;97093.38;;;8.04;100.00
50770;BME280;36740;48.698;11.472;2023-11-21T13:49:24;97095.66;;;8.07;100.00
50770;BME280;36740;48.698;11.472;2023-11-21T13:52:11;97094.03;;;8.06;100.00
50770;BME280;36740;48.698;11.472;2023-11-21T13:55:01;97102.53;;;8.07;100.00
50770;BME280;36740;48.698;11.472;2023-11-21T13:57:51;97098.34;;;8.06;100.00
50770;BME280;36740;48.698;11.472;2023-11-21T14:00:38;97105.72;;;7.99;100.00
50770;BME280;36740;48.698;11.472;2023-11-21T14:03:30;97107.63;;;8.07;100.00
50770;BME280;36740;48.698;11.472;2023-11-21T14:06:25;97110.84;;;8.09;100.00
50770;BME280;36740;48.698;11.472;2023-11-21T14:09:20;97104.66;;;8.11;100.00
50770;BME280;36740;48.698;11.472;2023-11-21T14:12:10;97104.41;;;8.15;100.00
50770;BME280;36740;48.698;11.472;2023-11-21T14:14:58;97102.66;;;8.05;100.00
50770;BME280;36740;48.698;11.472;2023-11-21T14:17:43;97100.63;;;7.99;100.00
50770;BME280;36740;48.698;11.472;2023-11-21T14:20:30;97111.63;;;8.00;100.00
50770;BME280;36740;48.698;11.472;2023-11-21T14:23:15;97112.28;;;8.02;100.00
50770;BME280;36740;48.698;11.472;2023-11-21T14:26:01;97121.16;;;7.98;100.00
50770;BME280;36740;48.698;11.472;2023-11-21T14:28:48;97110.31;;;8.05;100.00
50770;BME280;36740;48.698;11.472;2023-11-21T14:31:35;97115.41;;;8.05;100.00
50770;BME280;36740;48.698;11.472;2023-11-21T14:34:20;97119.47;;;8.18;100.00
50770;BME280;36740;48.698;11.472;2023-11-21T14:37:07;97114.31;;;8.08;100.00
50770;BME280;36740;48.698;11.472;2023-11-21T14:39:52;97126.16;;;8.09;100.00
50770;BME280;36740;48.698;11.472;2023-11-21T14:42:38;97123.78;;;8.17;100.00
50770;BME280;36740;48.698;11.472;2023-11-21T14:45:25;97125.66;;;8.15;100.00
50770;BME280;36740;48.698;11.472;2023-11-21T14:48:12;97128.94;;;7.96;100.00
50770;BME280;36740;48.698;11.472;2023-11-21T14:51:17;97140.09;;;7.95;100.00